Time;durP1;ratioP1;P1;durP2;ratioP2;P2;SDS_P1;SDS_P2;PMS_P1;PMS_P2;Temp;Humidity;BMP_temperature;BMP_pressure;BME280_temperature;BME280_humidity;BME280_pressure;Samples;Min_cycle;Max_cycle;Signal;HPM_P1;HPM_P2
2022/01/20 00:03:16;;;;;;;29.33;18.17;;;;;;;-1.11;73.53;100302.84;1600365;88;21069;-60
2022/01/20 00:27:13;;;;;;;41.07;21.27;;;;;;;-1.11;74.25;100288.00;1663392;85;21023;-61
2022/01/20 00:32:38;;;;;;;32.97;20.63;;;;;;;-1.12;74.39;100285.01;1660021;85;21032;-60
2022/01/20 00:35:11;;;;;;;34.07;20.40;;;;;;;-1.12;74.44;100277.16;1640885;85;21103;-60
2022/01/20 00:37:24;;;;;;;27.17;18.07;;;;;;;-1.09;74.44;100270.41;1633947;86;21091;-59
2022/01/20 00:39:51;;;;;;;33.57;19.60;;;;;;;-1.07;74.57;100268.98;1638631;86;20995;-63
2022/01/20 00:42:18;;;;;;;31.77;17.98;;;;;;;-1.08;74.54;100255.05;1627621;86;21098;-62
2022/01/20 00:44:45;;;;;;;30.73;19.37;;;;;;;-1.09;74.75;100252.09;1630675;84;21154;-60
2022/01/20 00:47:13;;;;;;;25.60;17.50;;;;;;;-1.11;74.83;100247.45;1633025;86;22266;-60
2022/01/20 00:49:40;;;;;;;31.60;18.43;;;;;;;-1.08;74.91;100245.89;1632664;86;21544;-61
2022/01/20 00:52:09;;;;;;;30.40;20.13;;;;;;;-1.07;74.89;100247.58;1631282;86;21615;-61
2022/01/20 00:54:37;;;;;;;24.77;18.00;;;;;;;-1.05;74.89;100239.62;1586882;89;21081;-60
2022/01/20 00:57:05;;;;;;;26.93;18.30;;;;;;;-1.02;74.95;100231.52;1635306;87;21037;-61
2022/01/20 00:59:32;;;;;;;25.50;17.03;;;;;;;-1.00;74.82;100230.47;1644261;86;21802;-59
2022/01/20 01:02:02;;;;;;;28.73;17.10;;;;;;;-0.98;74.85;100225.09;1617911;86;21541;-61
2022/01/20 01:04:29;;;;;;;31.67;19.70;;;;;;;-0.99;75.03;100222.14;1612435;87;21050;-60
2022/01/20 01:09:38;;;;;;;25.43;17.47;;;;;;;-0.93;74.93;100222.97;1570662;87;21077;-62
2022/01/20 01:12:08;;;;;;;31.23;18.10;;;;;;;-0.90;75.03;100223.23;1621683;84;21030;-60
2022/01/20 01:14:35;;;;;;;27.93;17.77;;;;;;;-0.93;75.11;100228.20;1610240;87;20998;-62
2022/01/20 01:20:08;;;;;;;28.17;17.13;;;;;;;-0.93;75.22;100213.81;1620282;87;21078;-59
2022/01/20 01:24:46;;;;;;;33.20;19.33;;;;;;;-0.89;75.33;100207.88;1607746;86;21027;-60
2022/01/20 01:27:13;;;;;;;32.00;18.93;;;;;;;-0.92;75.63;100200.25;1620486;87;21625;-60
2022/01/20 01:32:38;;;;;;;24.07;15.53;;;;;;;-0.89;75.61;100202.64;1613536;87;21065;-61
2022/01/20 01:34:55;;;;;;;30.63;17.83;;;;;;;-0.89;75.79;100189.55;1622595;86;21057;-60
2022/01/20 01:38:22;;;;;;;26.48;17.77;;;;;;;-0.86;75.72;100190.64;1634292;86;21004;-61
2022/01/20 01:39:52;;;;;;;30.70;19.23;;;;;;;-0.83;75.68;100187.77;1624764;86;20967;-61
2022/01/20 01:42:24;;;;;;;26.65;18.07;;;;;;;-0.80;75.72;100179.20;1633897;86;21094;-62
2022/01/20 01:44:48;;;;;;;30.20;18.53;;;;;;;-0.75;75.61;100173.63;1623521;86;21091;-62
2022/01/20 01:47:16;;;;;;;29.67;18.33;;;;;;;-0.73;75.57;100166.97;1592968;87;21045;-62
2022/01/20 01:49:42;;;;;;;28.10;18.50;;;;;;;-0.73;75.52;100166.48;1613452;88;21003;-60
2022/01/20 01:52:10;;;;;;;24.87;17.00;;;;;;;-0.75;75.58;100169.70;1611158;87;21014;-60
2022/01/20 01:54:36;;;;;;;30.68;18.80;;;;;;;-0.79;75.74;100166.48;1618368;87;21859;-60
2022/01/20 01:57:06;;;;;;;28.12;18.95;;;;;;;-0.81;75.99;100170.16;1617644;86;21038;-61
2022/01/20 01:59:32;;;;;;;29.13;18.73;;;;;;;-0.82;76.07;100165.89;1628639;88;21591;-60
2022/01/20 02:02:03;;;;;;;25.83;17.17;;;;;;;-0.81;76.03;100155.31;1616722;86;21498;-61
2022/01/20 02:04:33;;;;;;;26.13;15.63;;;;;;;-0.80;76.03;100146.98;1606574;88;21078;-60
2022/01/20 02:18:37;;;;;;;23.20;15.10;;;;;;;-0.79;76.25;100136.39;1617876;87;20162;-61
2022/01/20 02:20:53;;;;;;;29.40;17.23;;;;;;;-0.82;76.34;100135.31;1614539;87;21026;-61
2022/01/20 02:23:19;;;;;;;22.80;16.10;;;;;;;-0.80;76.32;100130.78;1626666;86;21017;-61
2022/01/20 02:25:46;;;;;;;25.65;16.67;;;;;;;-0.79;76.25;100125.92;1629709;86;21610;-59
2022/01/20 02:28:12;;;;;;;23.10;16.57;;;;;;;-0.77;76.30;100124.50;1633526;86;21049;-60
2022/01/20 02:30:43;;;;;;;25.72;17.32;;;;;;;-0.74;76.26;100119.49;1633452;86;21102;-59
2022/01/20 02:33:16;;;;;;;27.07;16.67;;;;;;;-0.73;76.30;100113.31;1631456;86;21010;-60
2022/01/20 02:35:54;;;;;;;27.40;17.30;;;;;;;-0.70;76.22;100110.44;1633405;86;21015;-60
2022/01/20 02:45:52;;;;;;;27.40;16.17;;;;;;;-0.69;76.30;100093.80;1712617;79;21124;-60
2022/01/20 02:48:18;;;;;;;25.82;17.48;;;;;;;-0.67;76.34;100091.40;1694920;83;21060;-60
2022/01/20 02:50:44;;;;;;;26.27;17.87;;;;;;;-0.65;76.11;100086.87;1699424;83;21064;-61
2022/01/20 02:53:10;;;;;;;24.23;16.48;;;;;;;-0.66;76.09;100085.67;1699274;83;21017;-59
2022/01/20 02:55:37;;;;;;;;;;;;;;;-0.64;76.19;100082.45;1707547;80;21053;-60
2022/01/20 02:58:04;;;;;;;25.63;17.53;;;;;;;-0.65;76.08;100082.94;1695038;83;20179;-60
2022/01/20 03:00:33;;;;;;;28.07;15.60;;;;;;;-0.68;76.19;100081.05;1671258;83;21518;-61
2022/01/20 03:03:00;;;;;;;24.87;16.10;;;;;;;-0.67;76.19;100071.77;1702883;82;20979;-61
2022/01/20 03:05:30;;;;;;;27.27;17.43;;;;;;;-0.69;76.30;100071.55;1704457;82;21006;-61
2022/01/20 03:08:00;;;;;;;26.10;17.77;;;;;;;-0.70;76.36;100064.14;1717312;82;21041;-60
2022/01/20 03:10:28;;;;;;;31.17;18.00;;;;;;;-0.70;76.47;100065.45;1707100;82;21074;-60
2022/01/20 03:12:57;;;;;;;26.17;16.97;;;;;;;-0.69;76.43;100061.08;1704641;82;21116;-59
2022/01/20 03:15:24;;;;;;;28.90;16.97;;;;;;;-0.71;76.69;100056.44;1707910;82;21050;-60
2022/01/20 03:17:51;;;;;;;24.93;17.27;;;;;;;-0.76;76.81;100046.32;1703504;82;21078;-60
2022/01/20 03:20:18;;;;;;;26.15;18.00;;;;;;;-0.74;76.76;100049.64;1696647;82;21081;-61
2022/01/20 03:22:44;;;;;;;25.20;17.50;;;;;;;-0.72;76.81;100042.98;1702298;82;21051;-60
2022/01/20 03:25:11;;;;;;;25.12;17.35;;;;;;;-0.69;76.71;100044.06;1688597;83;21610;-60
2022/01/20 03:27:38;;;;;;;24.70;16.37;;;;;;;-0.69;76.71;100031.80;1648848;85;21076;-60
2022/01/20 03:30:07;;;;;;;27.13;17.45;;;;;;;-0.68;76.61;100030.86;1652598;85;21054;-60
2022/01/20 03:32:35;;;;;;;27.20;17.53;;;;;;;-0.66;76.48;100016.31;1650599;84;21105;-64
2022/01/20 03:35:07;;;;;;;28.30;18.60;;;;;;;-0.69;76.48;100022.63;1640146;85;21182;-60
2022/01/20 03:37:34;;;;;;;32.87;18.83;;;;;;;-0.69;76.42;100020.50;1659928;85;21123;-61
2022/01/20 03:40:05;;;;;;;30.87;19.33;;;;;;;-0.72;76.47;100016.81;1661658;85;21117;-61
2022/01/20 03:42:31;;;;;;;30.23;19.00;;;;;;;-0.81;76.80;100010.52;1660049;85;21052;-60
2022/01/20 03:44:58;;;;;;;31.12;18.25;;;;;;;-0.83;76.79;100008.50;1648109;83;21022;-60
2022/01/20 03:47:26;;;;;;;25.70;17.80;;;;;;;-0.87;77.06;100003.99;1647834;85;21042;-60
2022/01/20 03:52:27;;;;;;;28.43;18.57;;;;;;;-0.88;77.07;100001.04;1659538;85;21059;-59
2022/01/20 03:54:53;;;;;;;26.67;17.03;;;;;;;-0.93;77.35;100000.56;1652363;85;21042;-59
2022/01/20 03:57:27;;;;;;;28.07;18.77;;;;;;;-0.95;77.45;99991.19;1681534;85;21062;-59
2022/01/20 03:59:57;;;;;;;26.77;17.83;;;;;;;-0.95;77.46;99994.63;1669732;84;21061;-60
2022/01/20 04:02:43;;;;;;;29.53;18.70;;;;;;;-1.01;77.75;99984.17;1662454;84;21138;-60
2022/01/20 04:05:11;;;;;;;31.20;19.37;;;;;;;-1.01;77.82;99984.66;1701167;82;21568;-60
2022/01/20 04:07:37;;;;;;;29.33;18.10;;;;;;;-1.00;77.74;99984.55;1704423;82;21526;-60
2022/01/20 04:10:05;;;;;;;32.28;20.25;;;;;;;-1.02;77.87;99981.67;1665657;84;21047;-60
2022/01/20 04:12:31;;;;;;;30.40;19.43;;;;;;;-1.00;77.71;99979.31;1699333;84;21049;-60
2022/01/20 04:15:05;;;;;;;27.62;18.35;;;;;;;-1.00;77.69;99975.39;1685630;83;21011;-61
2022/01/20 04:17:28;;;;;;;28.70;18.57;;;;;;;-0.98;77.73;99979.16;1684695;83;21023;-60
2022/01/20 04:19:54;;;;;;;29.07;19.03;;;;;;;-1.00;77.75;99979.31;1688627;83;21066;-60
2022/01/20 04:22:20;;;;;;;31.37;20.60;;;;;;;-1.02;77.67;99961.60;1679054;83;21011;-61
2022/01/20 04:24:46;;;;;;;31.70;18.10;;;;;;;-1.03;77.75;99956.48;1705176;82;21583;-60
2022/01/20 04:27:13;;;;;;;27.27;18.02;;;;;;;-1.05;77.81;99948.75;1702782;82;21059;-60
2022/01/20 04:29:39;;;;;;;;;;;;;;;-1.06;77.76;99948.39;1685812;82;21045;-60
2022/01/20 04:32:07;;;;;;;31.93;19.13;;;;;;;-1.07;77.72;99946.74;1701079;82;20259;-60
2022/01/20 04:34:33;;;;;;;29.48;20.32;;;;;;;-1.11;77.84;99945.78;1649628;83;21055;-60
2022/01/20 04:37:02;;;;;;;32.63;19.70;;;;;;;-1.16;78.02;99935.70;1669248;84;21479;-60
2022/01/20 04:39:31;;;;;;;34.30;20.70;;;;;;;-1.15;78.03;99945.20;1640790;85;21115;-60
2022/01/20 04:41:56;;;;;;;34.80;20.37;;;;;;;-1.16;78.02;99937.02;1657702;85;21060;-61
2022/01/20 04:47:29;;;;;;;29.43;19.33;;;;;;;-1.19;78.09;99933.33;1642347;85;21090;-60
2022/01/20 04:58:03;;;;;;;30.63;19.13;;;;;;;-1.24;78.05;99915.88;1675660;84;20979;-60
2022/01/20 05:00:31;;;;;;;35.50;20.43;;;;;;;-1.29;78.19;99908.87;1656221;84;21045;-60
2022/01/20 05:03:01;;;;;;;28.87;18.87;;;;;;;-1.29;78.07;99910.19;1645735;85;21081;-60
2022/01/20 05:05:27;;;;;;;28.37;18.97;;;;;;;-1.28;78.10;99904.84;1637105;86;21070;-61
2022/01/20 05:07:56;;;;;;;24.37;16.93;;;;;;;-1.31;78.17;99909.48;1641894;85;21077;-62
2022/01/20 05:10:22;;;;;;;28.92;19.10;;;;;;;-1.34;78.12;99900.56;1640021;86;21056;-59
2022/01/20 05:15:21;;;;;;;25.83;17.97;;;;;;;-1.40;78.12;99897.47;1639584;86;21071;-60
2022/01/20 05:17:49;;;;;;;27.20;17.90;;;;;;;-1.40;78.10;99890.94;1698523;82;21166;-60
2022/01/20 05:20:16;;;;;;;28.40;17.73;;;;;;;-1.79;77.98;99825.22;1700584;82;21031;-60
2022/01/20 05:22:43;;;;;;;28.10;18.40;;;;;;;-1.46;78.22;99888.81;1688722;82;21047;-60
2022/01/20 05:25:10;;;;;;;28.80;17.00;;;;;;;-1.44;78.05;99890.83;1676937;84;21007;-60
2022/01/20 05:27:38;;;;;;;30.90;18.03;;;;;;;-1.48;78.18;99883.38;1677836;84;21035;-60
2022/01/20 05:30:06;;;;;;;26.45;19.35;;;;;;;-1.48;78.05;99885.98;1670137;84;21026;-62
2022/01/20 05:32:32;;;;;;;25.53;17.23;;;;;;;-1.53;78.19;99890.25;1678485;84;21047;-60
2022/01/20 05:34:59;;;;;;;27.20;17.07;;;;;;;-1.54;78.14;99874.69;1659999;84;21041;-61
2022/01/20 05:37:25;;;;;;;23.90;16.57;;;;;;;-1.59;78.27;99878.50;1662371;85;21047;-59
2022/01/20 05:39:51;;;;;;;22.13;14.68;;;;;;;-1.57;78.15;99875.77;1661314;85;21617;-59
2022/01/20 05:42:18;;;;;;;25.40;15.90;;;;;;;-1.59;78.13;99867.22;1654184;85;21097;-58
2022/01/20 05:44:55;;;;;;;24.82;16.87;;;;;;;-1.62;78.11;99883.98;1656543;83;21072;-58
2022/01/20 05:47:30;;;;;;;27.22;17.48;;;;;;;-1.63;78.12;99888.02;1684739;84;21057;-59
2022/01/20 05:49:57;;;;;;;26.33;17.57;;;;;;;-1.63;77.96;99890.16;1645038;84;21193;-58
2022/01/20 05:52:24;;;;;;;25.10;17.02;;;;;;;-1.65;77.99;99883.40;1684828;84;21072;-59
2022/01/20 05:54:51;;;;;;;26.17;16.00;;;;;;;-1.65;77.88;99887.31;1684282;84;21075;-59
2022/01/20 05:57:17;;;;;;;24.18;16.20;;;;;;;-1.70;77.96;99884.23;1667706;81;21045;-59
2022/01/20 05:59:45;;;;;;;25.37;15.67;;;;;;;-1.69;77.83;99881.98;1665698;84;21033;-58
2022/01/20 06:02:24;;;;;;;22.55;16.02;;;;;;;-1.71;77.67;99876.88;1659663;84;21136;-58
2022/01/20 06:04:40;;;;;;;25.13;16.17;;;;;;;-1.73;77.44;99870.94;1652546;84;21498;-60
2022/01/20 06:07:07;;;;;;;25.60;16.82;;;;;;;-1.67;77.36;99870.45;1659907;84;21581;-61
2022/01/20 06:09:33;;;;;;;28.83;17.37;;;;;;;-1.60;77.09;99864.24;1644049;85;21061;-62
2022/01/20 06:11:59;;;;;;;26.90;17.85;;;;;;;-1.65;76.68;99857.27;1656070;84;21013;-61
2022/01/20 06:14:28;;;;;;;30.12;15.60;;;;;;;-1.60;76.60;99860.31;1665550;84;21024;-62
2022/01/20 06:16:54;;;;;;;26.03;16.20;;;;;;;-1.61;76.16;99840.38;1648094;84;21025;-63
2022/01/20 06:19:20;;;;;;;27.93;17.80;;;;;;;-1.57;76.02;99849.63;1646960;84;21075;-63
2022/01/20 06:21:48;;;;;;;;;;;;;;;-1.58;75.87;99854.52;1658885;84;21029;-64
2022/01/20 06:24:14;;;;;;;25.53;16.10;;;;;;;-1.58;75.61;99857.96;1652660;84;20157;-63
2022/01/20 06:26:40;;;;;;;29.25;16.90;;;;;;;-1.61;75.58;99860.80;1664825;85;21252;-63
2022/01/20 06:29:07;;;;;;;26.93;16.10;;;;;;;-1.59;75.20;99863.30;1655296;85;21146;-63
2022/01/20 06:31:33;;;;;;;23.98;15.72;;;;;;;-1.56;74.94;99859.15;1659254;85;21060;-63
2022/01/20 06:33:59;;;;;;;28.00;16.17;;;;;;;-1.50;74.93;99857.83;1646705;85;21062;-62
2022/01/20 06:36:25;;;;;;;29.55;16.37;;;;;;;-1.49;74.28;99849.84;1653547;84;21005;-63
2022/01/20 06:38:51;;;;;;;29.70;17.55;;;;;;;-1.45;74.18;99852.59;1661616;84;21418;-62
2022/01/20 06:41:17;;;;;;;30.25;16.60;;;;;;;-1.39;74.07;99839.02;1665783;84;21681;-62
2022/01/20 06:43:44;;;;;;;27.30;15.43;;;;;;;-1.41;73.62;99834.39;1660677;85;22196;-63
2022/01/20 06:46:10;;;;;;;27.00;16.48;;;;;;;-1.43;73.31;99828.45;1658363;84;21498;-63
2022/01/20 06:48:55;;;;;;;28.83;17.77;;;;;;;-1.38;73.11;99824.16;1660421;84;21005;-63
2022/01/20 06:51:23;;;;;;;22.47;15.17;;;;;;;-1.39;72.93;99805.02;1658208;85;21055;-64
2022/01/20 06:53:49;;;;;;;25.00;16.32;;;;;;;-1.39;72.67;99802.41;1661212;84;20996;-63
2022/01/20 06:56:15;;;;;;;31.70;17.27;;;;;;;-1.38;72.70;99806.67;1664337;84;20969;-63
2022/01/20 06:58:41;;;;;;;25.10;16.50;;;;;;;-1.34;72.40;99798.10;1684152;84;21573;-62
2022/01/20 07:01:07;;;;;;;26.15;16.75;;;;;;;-1.30;72.11;99801.30;1688310;83;21124;-64
2022/01/20 07:03:33;;;;;;;30.77;16.10;;;;;;;-1.31;71.91;99801.78;1684005;84;21075;-63
2022/01/20 07:05:59;;;;;;;;;;;;;;;-1.27;71.61;99797.96;1686739;84;21080;-63
2022/01/20 07:08:27;;;;;;;26.52;16.23;;;;;;;-1.31;71.46;99799.66;1681724;84;20117;-64
2022/01/20 07:10:53;;;;;;;29.95;15.88;;;;;;;-1.34;71.53;99795.48;1654979;85;20994;-65
2022/01/20 07:13:21;;;;;;;24.87;17.10;;;;;;;-1.31;71.39;99786.59;1660486;83;20990;-63
2022/01/20 07:15:47;;;;;;;23.40;16.10;;;;;;;-1.28;71.04;99798.94;1644493;85;21022;-63
2022/01/20 07:18:14;;;;;;;26.93;15.43;;;;;;;-1.31;71.01;99788.72;1654455;85;21112;-63
2022/01/20 07:20:41;;;;;;;26.12;15.43;;;;;;;-1.32;70.98;99787.03;1660883;85;21498;-65
2022/01/20 07:23:12;;;;;;;23.43;14.80;;;;;;;-1.32;70.82;99782.30;1654769;85;22306;-63
2022/01/20 07:25:40;;;;;;;30.03;18.20;;;;;;;-1.26;70.55;99772.63;1663172;85;21482;-64
2022/01/20 07:28:09;;;;;;;23.20;15.50;;;;;;;-1.21;70.28;99777.02;1660737;85;21038;-63
2022/01/20 07:30:38;;;;;;;22.30;15.32;;;;;;;-1.19;70.05;99792.95;1662508;85;21117;-63
2022/01/20 07:33:05;;;;;;;27.10;15.47;;;;;;;-1.15;69.95;99790.06;1628583;86;21573;-63
2022/01/20 07:35:32;;;;;;;24.60;16.87;;;;;;;-1.14;69.62;99792.56;1700134;82;21511;-63
2022/01/20 07:37:58;;;;;;;28.50;16.82;;;;;;;-1.07;69.55;99787.66;1712160;82;21616;-63
2022/01/20 07:40:24;;;;;;;27.15;17.67;;;;;;;-1.05;69.15;99799.65;1706463;82;21057;-63
2022/01/20 07:42:52;;;;;;;25.60;16.43;;;;;;;-0.96;69.05;99786.75;1692486;83;21067;-63
2022/01/20 07:45:21;;;;;;;25.37;16.80;;;;;;;-0.86;68.76;99791.09;1699733;82;20957;-64
2022/01/20 07:47:50;;;;;;;26.90;17.57;;;;;;;-0.78;68.25;99785.22;1709690;82;21061;-63
2022/01/20 07:50:16;;;;;;;24.70;16.10;;;;;;;-0.66;68.09;99792.05;1698727;82;21075;-63
2022/01/20 07:52:43;;;;;;;20.00;15.25;;;;;;;-0.67;67.16;99763.38;1709841;82;21037;-64
2022/01/20 07:55:10;;;;;;;23.10;16.07;;;;;;;-0.53;66.88;99779.22;1706158;82;21080;-63
2022/01/20 07:57:37;;;;;;;;;;;;;;;-0.46;66.98;99772.02;1707406;82;21604;-62
2022/01/20 08:00:07;;;;;;;24.93;15.87;;;;;;;-0.37;66.16;99762.55;1700753;82;20494;-63
2022/01/20 08:02:44;;;;;;;27.07;15.77;;;;;;;-0.31;66.41;99758.58;1705215;82;21516;-64
2022/01/20 08:05:14;;;;;;;27.57;17.33;;;;;;;-0.21;65.82;99754.19;1679641;82;21028;-64
2022/01/20 08:07:42;;;;;;;24.67;15.37;;;;;;;-0.10;65.07;99758.01;1703221;82;21100;-63
2022/01/20 08:10:11;;;;;;;18.50;13.38;;;;;;;-0.03;64.60;99745.22;1715016;82;21045;-62
2022/01/20 08:12:38;;;;;;;25.50;13.87;;;;;;;0.07;64.38;99749.16;1692515;82;21203;-62
2022/01/20 08:15:12;;;;;;;23.60;15.73;;;;;;;0.15;64.08;99750.16;1705142;82;21013;-63
2022/01/20 08:17:57;;;;;;;24.00;15.80;;;;;;;0.25;63.56;99749.34;1689381;82;21561;-62
2022/01/20 08:20:24;;;;;;;;;;;;;;;0.35;62.99;99750.98;1697412;82;21056;-64
2022/01/20 08:22:52;;;;;;;26.03;15.77;;;;;;;0.38;62.58;99753.84;1708948;82;20096;-62
2022/01/20 08:25:20;;;;;;;22.70;13.30;;;;;;;0.39;62.35;99759.41;1695792;82;21008;-64
2022/01/20 08:27:48;;;;;;;19.20;12.57;;;;;;;0.44;62.21;99759.84;1709596;82;21060;-64
2022/01/20 08:30:18;;;;;;;20.13;14.00;;;;;;;0.49;61.97;99763.34;1699941;82;21060;-63
2022/01/20 08:32:46;;;;;;;18.87;13.07;;;;;;;0.57;61.82;99755.14;1710014;82;21076;-63
2022/01/20 08:35:20;;;;;;;20.77;14.20;;;;;;;0.57;61.18;99762.19;1712012;81;21064;-63
2022/01/20 08:37:51;;;;;;;20.23;14.63;;;;;;;0.60;61.24;99759.77;1685679;82;21028;-64
2022/01/20 08:40:22;;;;;;;20.82;14.63;;;;;;;0.66;61.30;99740.38;1691145;82;21074;-64
2022/01/20 08:42:51;;;;;;;28.70;17.50;;;;;;;0.73;60.81;99751.13;1700881;82;21051;-63
2022/01/20 08:45:22;;;;;;;27.33;14.60;;;;;;;0.80;60.92;99752.23;1689532;80;20997;-64
2022/01/20 08:47:52;;;;;;;25.60;14.67;;;;;;;0.88;60.40;99753.66;1677432;83;21165;-64
2022/01/20 08:50:20;;;;;;;19.37;13.77;;;;;;;0.92;60.07;99751.13;1699328;82;21572;-65
2022/01/20 08:52:49;;;;;;;21.87;15.57;;;;;;;0.96;59.91;99745.94;1698228;82;21041;-62
2022/01/20 08:55:16;;;;;;;23.97;15.30;;;;;;;1.02;59.93;99746.31;1701250;82;21535;-63
2022/01/20 08:57:46;;;;;;;22.60;14.97;;;;;;;0.97;59.30;99733.14;1698125;82;21012;-63
2022/01/20 09:00:16;;;;;;;20.30;14.27;;;;;;;1.02;59.29;99735.82;1689908;82;21100;-62
2022/01/20 09:02:47;;;;;;;22.33;14.47;;;;;;;1.03;59.40;99737.48;1690429;82;21179;-62
2022/01/20 09:05:15;;;;;;;27.37;16.63;;;;;;;1.08;59.39;99726.91;1700758;82;20976;-65
2022/01/20 09:07:43;;;;;;;22.97;14.67;;;;;;;1.19;59.53;99723.30;1700047;82;21119;-64
2022/01/20 09:10:17;;;;;;;21.77;14.85;;;;;;;1.31;58.66;99712.95;1677336;82;21636;-65
2022/01/20 09:15:28;;;;;;;20.00;14.77;;;;;;;1.48;58.00;99711.84;1710044;82;21083;-64
2022/01/20 09:17:57;;;;;;;23.90;14.73;;;;;;;1.50;57.00;99699.40;1707044;82;21100;-63
2022/01/20 09:20:24;;;;;;;25.37;15.87;;;;;;;1.53;57.09;99693.37;1696333;82;21016;-63
2022/01/20 09:22:52;;;;;;;22.63;14.90;;;;;;;1.60;57.08;99680.49;1691180;81;21624;-63
2022/01/20 09:25:19;;;;;;;23.60;16.93;;;;;;;1.67;56.88;99678.91;1699467;82;21740;-63
2022/01/20 09:27:47;;;;;;;21.37;14.57;;;;;;;1.79;56.57;99678.70;1701621;82;21100;-64
2022/01/20 09:30:18;;;;;;;;;;;;;;;1.87;56.55;99673.55;1709565;82;21075;-64
2022/01/20 09:35:35;;;;;;;31.17;15.67;;;;;;;1.91;55.75;99653.88;1698556;82;21033;-64
2022/01/20 09:38:03;;;;;;;21.47;15.03;;;;;;;1.92;55.71;99663.40;1692011;82;21026;-63
2022/01/20 09:40:35;;;;;;;25.40;16.77;;;;;;;1.91;55.86;99647.30;1703395;82;21127;-63
2022/01/20 09:43:11;;;;;;;20.68;14.63;;;;;;;1.95;55.53;99646.03;1695213;82;21391;-65
2022/01/20 09:45:38;;;;;;;29.93;17.13;;;;;;;2.00;55.83;99641.63;1712189;81;21453;-64
2022/01/20 09:48:06;;;;;;;23.37;14.53;;;;;;;2.07;55.76;99642.22;1701774;82;21548;-63
2022/01/20 09:50:47;;;;;;;24.80;15.70;;;;;;;2.08;55.47;99630.70;1697537;82;21066;-64
2022/01/20 09:53:33;;;;;;;21.27;14.40;;;;;;;2.05;55.20;99620.48;1701292;82;21604;-61
2022/01/20 09:56:01;;;;;;;24.90;15.67;;;;;;;2.02;55.52;99625.24;1708737;80;20978;-63
2022/01/20 09:58:27;;;;;;;25.60;16.20;;;;;;;2.05;55.58;99611.28;1690320;82;21068;-64
2022/01/20 10:00:56;;;;;;;28.42;15.25;;;;;;;2.06;55.21;99608.19;1713604;82;21071;-64
2022/01/20 10:03:21;;;;;;;22.97;15.60;;;;;;;2.06;55.37;99612.13;1720865;82;21115;-63
2022/01/20 10:05:53;;;;;;;23.67;15.50;;;;;;;2.04;55.51;99600.44;1701706;81;21013;-63
2022/01/20 10:08:24;;;;;;;28.03;18.43;;;;;;;2.03;55.29;99595.33;1696972;82;21536;-62
2022/01/20 10:11:05;;;;;;;25.67;17.37;;;;;;;2.06;55.44;99587.16;1701997;82;21340;-63
2022/01/20 10:13:41;;;;;;;26.80;15.07;;;;;;;2.05;55.26;99588.94;1698140;82;21430;-63
2022/01/20 10:16:16;;;;;;;25.95;15.40;;;;;;;2.09;55.50;99582.42;1694563;82;21079;-63
2022/01/20 10:18:57;;;;;;;24.70;15.13;;;;;;;2.12;55.15;99581.28;1706157;82;21085;-64
2022/01/20 10:21:37;;;;;;;24.47;16.33;;;;;;;2.09;55.06;99576.31;1699964;82;21072;-64
2022/01/20 10:24:12;;;;;;;27.07;16.97;;;;;;;2.09;54.83;99580.26;1697579;81;21145;-64
2022/01/20 10:26:51;;;;;;;23.63;16.07;;;;;;;2.12;55.46;99580.78;1670345;82;21057;-63
2022/01/20 10:29:18;;;;;;;27.57;16.07;;;;;;;2.21;55.37;99563.28;1700731;82;21052;-63
2022/01/20 10:31:54;;;;;;;25.07;14.50;;;;;;;2.30;55.08;99553.66;1695072;82;21249;-64
2022/01/20 10:34:31;;;;;;;24.67;14.43;;;;;;;2.33;54.63;99548.06;1701544;82;21017;-62
2022/01/20 10:37:17;;;;;;;20.50;15.13;;;;;;;2.25;54.51;99542.76;1695889;82;21105;-64
2022/01/20 10:39:47;;;;;;;25.63;16.77;;;;;;;2.22;54.75;99535.17;1693738;82;21465;-64
2022/01/20 10:42:21;;;;;;;22.43;15.40;;;;;;;2.20;55.10;99523.48;1700685;82;21025;-63
2022/01/20 10:44:54;;;;;;;24.47;15.63;;;;;;;2.26;55.14;99524.67;1687368;82;21135;-64
2022/01/20 10:47:33;;;;;;;26.77;17.00;;;;;;;2.30;55.21;99516.84;1704745;82;21058;-65
2022/01/20 10:50:12;;;;;;;32.70;17.60;;;;;;;2.33;55.27;99511.25;1696223;82;21560;-63
2022/01/20 10:52:44;;;;;;;22.57;16.50;;;;;;;2.33;55.49;99509.93;1697859;82;21000;-63
2022/01/20 10:55:28;;;;;;;25.70;17.17;;;;;;;2.33;55.58;99503.36;1712248;82;21619;-63
2022/01/20 10:57:59;;;;;;;27.37;18.50;;;;;;;2.30;55.32;99494.48;1708518;82;21079;-63
2022/01/20 11:00:26;;;;;;;29.53;17.37;;;;;;;2.28;55.64;99493.78;1700271;82;21181;-64
2022/01/20 11:02:56;;;;;;;30.17;18.03;;;;;;;2.25;55.84;99492.80;1714499;82;21333;-64
2022/01/20 11:05:24;;;;;;;27.97;18.60;;;;;;;2.21;56.03;99485.70;1703430;82;21035;-62
2022/01/20 11:07:52;;;;;;;27.10;16.63;;;;;;;2.17;56.39;99484.38;1699453;82;21060;-64
2022/01/20 11:10:19;;;;;;;23.07;17.53;;;;;;;2.15;56.16;99475.82;1708337;82;21602;-63
2022/01/20 11:12:46;;;;;;;23.32;15.50;;;;;;;2.17;56.29;99471.23;1704647;81;21173;-63
2022/01/20 11:15:26;;;;;;;22.70;15.33;;;;;;;2.17;56.30;99465.13;1712486;82;21059;-64
2022/01/20 11:17:56;;;;;;;26.63;17.30;;;;;;;2.17;56.69;99467.28;1690472;82;21084;-64
2022/01/20 11:20:28;;;;;;;25.13;15.23;;;;;;;2.11;56.75;99491.08;1698818;82;21103;-64
2022/01/20 11:23:07;;;;;;;27.40;17.70;;;;;;;2.06;56.58;99484.13;1695651;82;20989;-63
2022/01/20 11:25:39;;;;;;;22.43;16.57;;;;;;;1.99;57.10;99480.47;1703994;82;21053;-64
2022/01/20 11:28:20;;;;;;;30.13;16.93;;;;;;;1.99;57.05;99485.72;1700638;82;21029;-63
2022/01/20 11:31:04;;;;;;;32.37;19.03;;;;;;;2.00;57.18;99486.07;1706150;82;21128;-64
2022/01/20 11:33:45;;;;;;;28.00;16.70;;;;;;;2.03;57.23;99480.48;1704420;80;21139;-63
2022/01/20 11:36:24;;;;;;;23.60;16.87;;;;;;;2.01;57.03;99468.48;1699595;82;21112;-63
2022/01/20 11:38:53;;;;;;;27.00;17.63;;;;;;;2.01;57.07;99465.86;1696143;82;21520;-64
2022/01/20 11:41:18;;;;;;;24.93;17.60;;;;;;;2.07;56.80;99466.08;1702176;82;21056;-63
2022/01/20 11:43:48;;;;;;;24.37;17.32;;;;;;;2.10;56.74;99457.05;1694861;82;20996;-63
2022/01/20 11:46:19;;;;;;;23.10;15.70;;;;;;;2.14;57.00;99461.02;1718336;80;21532;-63
2022/01/20 11:48:58;;;;;;;25.60;18.20;;;;;;;2.14;57.02;99461.83;1710767;82;21540;-63
2022/01/20 11:51:30;;;;;;;19.70;16.23;;;;;;;2.20;56.98;99462.19;1699582;82;21084;-65
2022/01/20 11:54:02;;;;;;;30.03;17.87;;;;;;;2.26;57.00;99463.73;1708945;82;21032;-64
2022/01/20 11:56:33;;;;;;;26.03;17.57;;;;;;;2.31;56.90;99466.69;1699036;82;21100;-63
2022/01/20 11:59:00;;;;;;;24.20;17.50;;;;;;;2.32;56.81;99466.22;1697883;82;21116;-64
2022/01/20 12:01:27;;;;;;;20.92;15.38;;;;;;;2.35;56.99;99463.26;1703296;82;21088;-61
2022/01/20 12:03:56;;;;;;;27.00;16.87;;;;;;;2.35;56.79;99459.31;1703295;82;21045;-62
2022/01/20 12:06:32;;;;;;;20.97;15.23;;;;;;;2.38;56.67;99451.13;1698048;82;21064;-60
2022/01/20 12:09:04;;;;;;;29.83;16.87;;;;;;;2.42;56.38;99440.61;1707348;82;21013;-62
2022/01/20 12:11:39;;;;;;;26.90;16.20;;;;;;;2.44;56.42;99442.59;1706458;81;21091;-61
2022/01/20 12:14:06;;;;;;;24.97;17.43;;;;;;;2.46;56.63;99434.05;1711053;82;21000;-61
2022/01/20 12:16:35;;;;;;;25.77;16.20;;;;;;;2.50;57.05;99430.11;1712218;82;21083;-61
2022/01/20 12:19:05;;;;;;;29.10;17.73;;;;;;;2.56;56.98;99424.71;1709957;82;21065;-62
2022/01/20 12:21:31;;;;;;;27.97;18.47;;;;;;;2.58;56.86;99418.83;1714148;82;20992;-62
2022/01/20 12:23:58;;;;;;;30.88;17.92;;;;;;;2.56;56.83;99419.45;1710187;82;21580;-62
2022/01/20 12:26:25;;;;;;;27.33;17.17;;;;;;;2.56;57.09;99411.55;1695986;82;21024;-62
2022/01/20 12:29:07;;;;;;;30.50;19.83;;;;;;;2.58;57.18;99408.77;1694331;82;21009;-61
2022/01/20 12:31:52;;;;;;;23.83;16.80;;;;;;;2.61;57.27;99411.91;1699606;82;21045;-61
2022/01/20 12:34:21;;;;;;;25.67;16.13;;;;;;;2.64;57.59;99417.37;1710357;81;21107;-61
2022/01/20 12:36:57;;;;;;;28.17;17.87;;;;;;;2.63;57.52;99402.55;1698079;82;21005;-61
2022/01/20 12:39:32;;;;;;;26.13;17.87;;;;;;;2.63;57.74;99403.36;1692733;82;21025;-61
2022/01/20 12:42:06;;;;;;;25.40;17.30;;;;;;;2.65;57.69;99403.20;1699913;82;21048;-60
2022/01/20 12:44:48;;;;;;;26.80;18.67;;;;;;;2.69;57.65;99399.27;1706288;82;21024;-62
2022/01/20 12:47:10;;;;;;;39.67;20.90;;;;;;;2.68;57.93;99394.51;1707329;82;21025;-62